createdAt,value
2023-01-02T00:03:27.122Z,8.35
2023-01-02T00:08:33.942Z,8.90
2023-01-02T00:13:38.346Z,8.85
2023-01-02T00:18:42.664Z,20.27
2023-01-02T00:23:48.503Z,10.27
2023-01-02T00:33:57.088Z,7.35
2023-01-02T00:39:02.982Z,7.18
2023-01-02T00:49:11.406Z,8.82
2023-01-02T00:54:17.148Z,8.18
2023-01-02T00:59:21.622Z,6.95
2023-01-02T01:04:26.063Z,8.23
2023-01-02T01:09:32.037Z,7.47
2023-01-02T01:14:36.356Z,7.63
2023-01-02T01:19:40.789Z,7.28
2023-01-02T01:24:46.514Z,6.55
2023-01-02T01:34:55.011Z,7.78
2023-01-02T01:40:00.785Z,6.85
2023-01-02T01:50:13.988Z,7.55
2023-01-02T01:55:23.659Z,7.22
2023-01-02T02:00:28.532Z,6.60
2023-01-02T02:05:34.057Z,6.97
2023-01-02T02:10:40.159Z,6.78
2023-01-02T02:15:52.478Z,7.57
2023-01-02T02:21:02.390Z,7.68
2023-01-02T02:26:34.607Z,7.28
2023-01-02T02:31:50.206Z,7.85
2023-01-02T02:37:01.153Z,7.10
2023-01-02T02:42:14.346Z,7.82
2023-01-02T02:47:29.061Z,7.38
2023-01-02T02:52:38.364Z,7.50
2023-01-02T02:57:44.913Z,8.00
2023-01-02T03:02:50.965Z,8.00
2023-01-02T03:08:00.157Z,7.93
2023-01-02T03:13:14.535Z,7.95
2023-01-02T03:18:28.991Z,8.05
2023-01-02T03:23:38.108Z,8.18
2023-01-02T03:28:47.070Z,8.77
2023-01-02T03:33:57.322Z,8.10
2023-01-02T03:39:07.084Z,8.70
2023-01-02T03:44:13.627Z,8.32
2023-01-02T03:49:24.161Z,8.05
2023-01-02T03:54:30.182Z,8.95
2023-01-02T03:59:40.691Z,9.68
2023-01-02T04:04:53.244Z,9.93
2023-01-02T04:09:59.423Z,9.00
2023-01-02T04:15:07.522Z,11.07
2023-01-02T04:20:18.552Z,10.00
2023-01-02T04:25:27.489Z,9.73
2023-01-02T04:30:36.533Z,11.13
2023-01-02T04:35:42.280Z,9.65
2023-01-02T04:40:46.842Z,10.55
2023-01-02T04:45:52.032Z,9.73
2023-01-02T04:50:57.885Z,11.90
2023-01-02T04:56:02.343Z,11.70
2023-01-02T05:01:10.532Z,10.88
2023-01-02T05:06:17.462Z,11.48
2023-01-02T05:11:22.320Z,10.65
2023-01-02T05:16:26.777Z,10.68
2023-01-02T05:21:49.851Z,11.07
2023-01-02T05:26:54.315Z,9.73
2023-01-02T05:31:58.706Z,10.95
2023-01-02T05:37:04.709Z,10.05
2023-01-02T05:47:16.554Z,9.82
2023-01-02T05:52:22.494Z,10.10
2023-01-02T05:57:26.744Z,10.85
2023-01-02T06:02:31.218Z,10.48
2023-01-02T06:07:38.232Z,11.38
2023-01-02T06:12:42.630Z,12.63
2023-01-02T06:17:46.916Z,11.10
2023-01-02T06:22:53.479Z,11.33
2023-01-02T06:27:57.846Z,9.57
2023-01-02T06:33:04.700Z,8.70
2023-01-02T06:38:11.697Z,9.88
2023-01-02T06:48:20.568Z,7.78
2023-01-02T06:53:28.228Z,14.60
2023-01-02T06:58:34.456Z,10.00
2023-01-02T07:03:39.088Z,9.82
2023-01-02T07:08:45.601Z,10.48
2023-01-02T07:13:52.002Z,9.48
2023-01-02T07:18:58.563Z,9.90
2023-01-02T07:24:04.655Z,9.90
2023-01-02T07:29:09.357Z,8.27
2023-01-02T07:34:13.632Z,14.23
2023-01-02T07:39:19.489Z,12.98
2023-01-02T07:49:27.818Z,8.85
2023-01-02T07:54:34.191Z,9.80
2023-01-02T07:59:38.519Z,9.27
2023-01-02T08:04:42.851Z,18.92
2023-01-02T08:09:48.842Z,11.65
2023-01-02T08:20:01.619Z,8.68
2023-01-02T08:25:12.846Z,8.48
2023-01-02T08:30:17.153Z,9.00
2023-01-02T08:35:36.940Z,8.50
2023-01-02T08:40:44.112Z,8.70
2023-01-02T08:50:52.391Z,5.97
2023-01-02T08:56:17.844Z,6.65
2023-01-02T09:01:23.903Z,7.43
2023-01-02T09:06:31.434Z,8.05
2023-01-02T09:11:39.591Z,5.82
2023-01-02T09:16:44.203Z,6.00
2023-01-02T09:21:49.143Z,6.07
2023-01-02T09:26:55.141Z,5.60
2023-01-02T09:31:59.692Z,5.57
2023-01-02T09:37:04.302Z,5.85
2023-01-02T09:42:15.940Z,5.90
2023-01-02T09:47:24.162Z,5.22
2023-01-02T09:52:31.688Z,4.95
2023-01-02T09:57:44.189Z,5.25
2023-01-02T10:03:08.761Z,5.47
2023-01-02T10:08:31.806Z,4.65
2023-01-02T10:19:15.843Z,4.70
2023-01-02T10:24:25.329Z,5.18
2023-01-02T10:29:35.544Z,4.30
2023-01-02T10:34:52.401Z,3.95
2023-01-02T10:39:56.964Z,3.75
2023-01-02T10:45:02.960Z,4.32
2023-01-02T10:50:09.373Z,3.80
2023-01-02T10:55:15.021Z,4.20
2023-01-02T11:00:30.396Z,3.92
2023-01-02T11:05:35.204Z,3.60
2023-01-02T11:10:39.748Z,4.10
2023-01-02T11:15:54.977Z,4.43
2023-01-02T11:21:04.454Z,3.58
2023-01-02T11:26:15.002Z,4.85
2023-01-02T11:31:23.059Z,3.67
2023-01-02T11:36:27.758Z,4.38
2023-01-02T11:41:50.829Z,3.97
2023-01-02T11:46:57.635Z,3.35
2023-01-02T11:52:05.161Z,3.40
2023-01-02T11:57:18.942Z,3.78
2023-01-02T12:02:31.220Z,4.10
2023-01-02T12:07:44.653Z,3.60
2023-01-02T12:13:01.415Z,3.42
2023-01-02T12:18:20.322Z,3.60
2023-01-02T12:23:39.433Z,4.07
2023-01-02T12:29:05.453Z,3.53
2023-01-02T12:34:22.351Z,3.78
2023-01-02T12:40:00.198Z,3.58
2023-01-02T12:45:05.084Z,3.42
2023-01-02T12:50:48.471Z,3.70
2023-01-02T12:56:05.601Z,3.70
2023-01-02T13:01:19.158Z,3.72
2023-01-02T13:06:44.928Z,4.32
2023-01-02T13:11:56.126Z,3.50
2023-01-02T13:17:08.931Z,3.50
2023-01-02T13:22:28.332Z,4.03
2023-01-02T13:27:34.304Z,5.55
2023-01-02T13:32:40.671Z,3.85
2023-01-02T13:37:47.301Z,3.92
2023-01-02T13:43:00.866Z,4.10
2023-01-02T13:48:08.826Z,3.83
2023-01-02T13:53:31.514Z,3.55
2023-01-02T13:58:51.012Z,3.85
2023-01-02T14:04:28.334Z,5.05
2023-01-02T14:10:11.827Z,3.72
2023-01-02T14:15:20.076Z,4.40
2023-01-02T14:20:27.503Z,4.35
2023-01-02T14:25:34.107Z,4.25
2023-01-02T14:30:40.330Z,4.20
2023-01-02T14:35:52.248Z,3.90
2023-01-02T14:41:18.922Z,4.65
2023-01-02T14:46:26.962Z,5.28
2023-01-02T14:51:35.865Z,5.55
2023-01-02T14:56:44.567Z,5.15
2023-01-02T15:01:51.847Z,4.88
2023-01-02T15:07:09.985Z,5.60
2023-01-02T15:12:41.072Z,5.90
2023-01-02T15:17:47.634Z,5.25
2023-01-02T15:22:54.087Z,5.78
2023-01-02T15:27:59.876Z,5.68
2023-01-02T15:33:04.425Z,5.10
2023-01-02T15:38:22.189Z,5.25
2023-01-02T15:43:49.241Z,6.05
2023-01-02T15:48:55.099Z,6.30
2023-01-02T15:59:26.139Z,5.55
2023-01-02T16:04:33.279Z,5.93
2023-01-02T16:09:38.108Z,5.55
2023-01-02T16:14:47.038Z,5.35
2023-01-02T16:19:58.615Z,6.38
2023-01-02T16:25:08.797Z,7.68
2023-01-02T16:30:32.709Z,6.47
2023-01-02T16:35:37.897Z,6.90
2023-01-02T16:41:00.908Z,6.25
2023-01-02T16:46:11.902Z,6.55
2023-01-02T16:51:17.241Z,7.20
2023-01-02T16:56:21.655Z,6.43
2023-01-02T17:01:27.797Z,7.20
2023-01-02T17:06:32.468Z,7.90
2023-01-02T17:11:58.717Z,6.60
2023-01-02T17:17:04.734Z,7.22
2023-01-02T17:22:09.210Z,7.70
2023-01-02T17:27:13.991Z,7.35
2023-01-02T17:32:20.025Z,9.98
2023-01-02T17:42:31.336Z,8.63
2023-01-02T17:53:02.455Z,6.65
2023-01-02T17:58:06.897Z,8.18
2023-01-02T18:03:12.839Z,10.82
2023-01-02T18:08:17.616Z,14.07
2023-01-02T18:13:22.180Z,8.52
2023-01-02T18:18:28.217Z,8.90
2023-01-02T18:23:32.765Z,10.23
2023-01-02T18:28:38.533Z,13.23
2023-01-02T18:33:45.304Z,9.23
2023-01-02T18:38:51.571Z,10.55
2023-01-02T18:44:01.582Z,14.75
2023-01-02T18:49:16.640Z,14.02
2023-01-02T18:54:29.889Z,15.15
2023-01-02T18:59:34.925Z,13.57
2023-01-02T19:04:40.970Z,14.03
2023-01-02T19:09:45.524Z,15.57
2023-01-02T19:14:51.928Z,17.58
2023-01-02T19:19:58.221Z,11.65
2023-01-02T19:25:10.139Z,11.18
2023-01-02T19:30:30.644Z,14.05
2023-01-02T19:35:58.762Z,16.15
2023-01-02T19:41:03.299Z,15.80
2023-01-02T19:46:08.657Z,15.68
2023-01-02T19:51:14.564Z,13.93
2023-01-02T19:56:19.431Z,12.23
2023-01-02T20:01:24.101Z,9.93
2023-01-02T20:06:30.043Z,12.05
2023-01-02T20:11:51.843Z,15.82
2023-01-02T20:16:56.641Z,19.58
2023-01-02T20:22:04.256Z,14.70
2023-01-02T20:27:08.992Z,21.40
2023-01-02T20:32:13.458Z,16.85
2023-01-02T20:37:22.070Z,10.18
2023-01-02T20:42:26.774Z,10.65
2023-01-02T20:47:31.105Z,11.38
2023-01-02T20:52:36.994Z,10.48
2023-01-02T20:57:41.553Z,9.57
2023-01-02T21:02:46.111Z,10.57
2023-01-02T21:07:52.752Z,11.23
2023-01-02T21:13:10.735Z,9.75
2023-01-02T21:18:18.360Z,11.60
2023-01-02T21:23:26.295Z,10.40
2023-01-02T21:28:30.776Z,11.65
2023-01-02T21:33:35.915Z,12.45
2023-01-02T21:38:41.934Z,10.03
2023-01-02T21:48:50.540Z,10.73
2023-01-02T21:53:56.368Z,9.77
2023-01-02T22:04:05.026Z,9.80
2023-01-02T22:09:10.996Z,10.00
2023-01-02T22:19:19.597Z,12.15
2023-01-02T22:24:27.214Z,10.60
2023-01-02T22:30:00.314Z,9.55
2023-01-02T22:34:57.466Z,10.43
2023-01-02T22:40:03.456Z,10.63
2023-01-02T22:50:19.924Z,11.57
2023-01-02T22:55:25.831Z,11.02
2023-01-02T23:00:30.401Z,11.63
2023-01-02T23:05:34.882Z,13.98
2023-01-02T23:10:40.688Z,13.75
2023-01-02T23:15:59.066Z,9.20
2023-01-02T23:21:09.395Z,11.85
2023-01-02T23:26:18.215Z,9.93
2023-01-02T23:31:22.833Z,7.55
2023-01-02T23:36:28.010Z,8.60
2023-01-02T23:41:35.658Z,8.07
2023-01-02T23:46:41.592Z,7.82
2023-01-02T23:51:47.835Z,8.52
2023-01-02T23:56:53.657Z,8.65
